This is the latest recevied weather packets stored in our database for station/object DK7LH-6. If no packets are shown the sender has not sent any weather packets the latest 10 day(s).
| Time | Temp. | Humidity | Pressure | Rain* | Wind** | Luminosity | Snow |
|---|---|---|---|---|---|---|---|
| 1777904140 | 16.11° C | 83% | 1012.6 hPa | 0 mm | - | 177 W/m² | - |
| 1777903273 | 16.11° C | 83% | 1012.7 hPa | 0 mm | - | 259 W/m² | - |
| 1777902343 | 16.11° C | 84% | 1012.7 hPa | 0 mm | - | 64 W/m² | - |
| 1777901474 | 16.67° C | 83% | 1012.7 hPa | 0 mm | - | 102 W/m² | - |
| 1777900544 | 16.67° C | 83% | 1012.7 hPa | 0 mm | - | 148 W/m² | - |
| 1777899676 | 16.11° C | 83% | 1012.6 hPa | 0 mm | - | 122 W/m² | - |
| 1777898747 | 17.22° C | 80% | 1012.8 hPa | 0 mm | - | 84 W/m² | - |
| 1777897816 | 17.78° C | 75% | 1012.8 hPa | 0 mm | - | 135 W/m² | - |
| 1777896949 | 17.22° C | 74% | 1012.8 hPa | 0 mm | - | 185 W/m² | - |
| 1777896018 | 17.22° C | 75% | 1013.1 hPa | 0 mm | - | 255 W/m² | - |
| 1777895151 | 17.22° C | 76% | 1013.1 hPa | 0 mm | - | 597 W/m² | - |
| 1777894221 | 17.22° C | 75% | 1012.9 hPa | 0 mm | - | 601 W/m² | - |
| 1777893353 | 16.67° C | 78% | 1013.1 hPa | 0 mm | - | 637 W/m² | - |
| 1777892423 | 16.67° C | 79% | 1013 hPa | 0 mm | - | 513 W/m² | - |
| 1777891554 | 16.11° C | 81% | 1013.1 hPa | 0 mm | - | 333 W/m² | - |
| 1777890624 | 16.11° C | 82% | 1013.1 hPa | 0 mm | - | 418 W/m² | - |
| 1777889757 | 15° C | 84% | 1013.2 hPa | 0 mm | - | 255 W/m² | - |
| 1777888827 | 15° C | 84% | 1013 hPa | 0 mm | - | 212 W/m² | - |
| 1777887959 | 14.44° C | 85% | 1013.2 hPa | 0 mm | - | 143 W/m² | - |
| 1777887028 | 15° C | 84% | 1013.1 hPa | 0 mm | - | 110 W/m² | - |
| 1777886161 | 15° C | 85% | 1013 hPa | 0 mm | - | 138 W/m² | - |
| 1777885231 | 15° C | 85% | 1013.1 hPa | 0 mm | - | 175 W/m² | - |
| 1777884363 | 14.44° C | 87% | 1012.9 hPa | 0 mm | - | 230 W/m² | - |
| 1777883432 | 13.89° C | 88% | 1012.8 hPa | 0 mm | - | 146 W/m² | - |
| 1777882565 | 13.89° C | 88% | 1012.7 hPa | 0 mm | - | 220 W/m² | - |
* Rain latest hour (hover to see other rain measurements)
** Current wind speed in m/s (hover to see current wind gust speed)